createdAt,value
2023-02-21T00:00:13.161Z,482.00
2023-02-21T00:01:14.428Z,481.00
2023-02-21T00:02:13.123Z,480.00
2023-02-21T00:03:14.119Z,476.00
2023-02-21T00:04:13.102Z,476.00
2023-02-21T00:05:13.140Z,475.00
2023-02-21T00:06:14.161Z,476.00
2023-02-21T00:07:14.076Z,475.00
2023-02-21T00:08:14.081Z,475.00
2023-02-21T00:09:14.084Z,475.00
2023-02-21T00:10:14.067Z,475.00
2023-02-21T00:11:14.423Z,476.00
2023-02-21T00:12:14.043Z,477.00
2023-02-21T00:13:14.079Z,478.00
2023-02-21T00:14:14.031Z,479.00
2023-02-21T00:15:14.062Z,479.00
2023-02-21T00:16:14.090Z,477.00
2023-02-21T00:17:14.012Z,478.00
2023-02-21T00:18:14.005Z,480.00
2023-02-21T00:19:14.033Z,482.00
2023-02-21T00:20:15.498Z,481.00
2023-02-21T00:21:14.291Z,483.00
2023-02-21T00:22:12.977Z,483.00
2023-02-21T00:23:13.964Z,482.00
2023-02-21T00:24:13.944Z,482.00
2023-02-21T00:25:13.984Z,482.00
2023-02-21T00:26:13.952Z,485.00
2023-02-21T00:27:13.951Z,485.00
2023-02-21T00:28:13.945Z,484.00
2023-02-21T00:29:12.914Z,486.00
2023-02-21T00:30:13.938Z,484.00
2023-02-21T00:31:14.267Z,485.00
2023-02-21T00:32:13.917Z,483.00
2023-02-21T00:33:13.979Z,482.00
2023-02-21T00:34:13.890Z,485.00
2023-02-21T00:35:13.891Z,485.00
2023-02-21T00:36:12.879Z,484.00
2023-02-21T00:37:13.869Z,483.00
2023-02-21T00:38:12.880Z,484.00
2023-02-21T00:39:13.889Z,483.00
2023-02-21T00:40:13.851Z,481.00
2023-02-21T00:41:14.219Z,482.00
2023-02-21T00:42:13.840Z,480.00
2023-02-21T00:43:12.863Z,479.00
2023-02-21T00:44:13.850Z,482.00
2023-02-21T00:45:13.826Z,481.00
2023-02-21T00:46:13.835Z,482.00
2023-02-21T00:47:13.836Z,482.00
2023-02-21T00:48:13.842Z,482.00
2023-02-21T00:49:13.820Z,482.00
2023-02-21T00:50:13.838Z,483.00
2023-02-21T00:51:14.588Z,486.00
2023-02-21T00:52:12.908Z,485.00
2023-02-21T00:53:12.932Z,485.00
2023-02-21T00:54:12.916Z,484.00
2023-02-21T00:55:13.966Z,483.00
2023-02-21T00:56:13.986Z,486.00
2023-02-21T00:57:13.994Z,488.00
2023-02-21T00:58:13.965Z,487.00
2023-02-21T00:59:13.958Z,489.00
2023-02-21T01:00:12.983Z,491.00
2023-02-21T01:01:13.472Z,490.00
2023-02-21T01:02:12.952Z,490.00
2023-02-21T01:03:12.960Z,492.00
2023-02-21T01:04:13.986Z,490.00
2023-02-21T01:05:13.941Z,489.00
2023-02-21T01:06:13.939Z,490.00
2023-02-21T01:07:14.473Z,485.00
2023-02-21T01:08:13.918Z,485.00
2023-02-21T01:09:13.932Z,484.00
2023-02-21T01:10:13.908Z,484.00
2023-02-21T01:11:14.243Z,485.00
2023-02-21T01:12:13.928Z,485.00
2023-02-21T01:13:12.891Z,486.00
2023-02-21T01:14:13.910Z,488.00
2023-02-21T01:15:12.886Z,486.00
2023-02-21T01:16:14.033Z,486.00
2023-02-21T01:17:13.757Z,486.00
2023-02-21T01:18:12.893Z,486.00
2023-02-21T01:19:13.901Z,486.00
2023-02-21T01:20:13.862Z,486.00
2023-02-21T01:21:13.126Z,486.00
2023-02-21T01:22:13.880Z,486.00
2023-02-21T01:23:13.858Z,488.00
2023-02-21T01:24:12.867Z,489.00
2023-02-21T01:25:12.854Z,488.00
2023-02-21T01:26:13.867Z,484.00
2023-02-21T01:27:12.866Z,485.00
2023-02-21T01:28:12.893Z,484.00
2023-02-21T01:29:13.881Z,485.00
2023-02-21T01:30:13.991Z,487.00
2023-02-21T01:31:14.284Z,487.00
2023-02-21T01:32:12.930Z,487.00
2023-02-21T01:33:13.883Z,487.00
2023-02-21T01:34:12.896Z,488.00
2023-02-21T01:35:14.019Z,486.00
2023-02-21T01:36:12.885Z,485.00
2023-02-21T01:37:12.904Z,487.00
2023-02-21T01:38:13.940Z,486.00
2023-02-21T01:39:13.948Z,486.00
2023-02-21T01:40:13.977Z,487.00
2023-02-21T01:41:13.463Z,482.00
2023-02-21T01:42:12.928Z,481.00
2023-02-21T01:43:12.935Z,481.00
2023-02-21T01:44:14.002Z,480.00
2023-02-21T01:45:12.938Z,480.00
2023-02-21T01:46:13.989Z,477.00
2023-02-21T01:47:13.956Z,474.00
2023-02-21T01:48:13.967Z,471.00
2023-02-21T01:49:13.992Z,471.00
2023-02-21T01:50:13.988Z,473.00
2023-02-21T01:51:14.320Z,476.00
2023-02-21T01:52:13.965Z,475.00
2023-02-21T01:53:13.986Z,474.00
2023-02-21T01:54:14.034Z,476.00
2023-02-21T01:55:12.990Z,477.00
2023-02-21T01:56:13.018Z,479.00
2023-02-21T01:57:14.073Z,481.00
2023-02-21T01:58:14.034Z,482.00
2023-02-21T01:59:13.048Z,482.00
2023-02-21T02:00:14.053Z,479.00
2023-02-21T02:01:14.408Z,479.00
2023-02-21T02:02:14.056Z,478.00
2023-02-21T02:03:14.106Z,477.00
2023-02-21T02:04:14.153Z,478.00
2023-02-21T02:05:14.116Z,477.00
2023-02-21T02:06:14.117Z,475.00
2023-02-21T02:07:14.153Z,477.00
2023-02-21T02:08:13.135Z,479.00
2023-02-21T02:09:13.150Z,480.00
2023-02-21T02:10:14.163Z,478.00
2023-02-21T02:11:14.530Z,478.00
2023-02-21T02:12:13.178Z,478.00
2023-02-21T02:13:14.193Z,478.00
2023-02-21T02:14:13.234Z,478.00
2023-02-21T02:15:14.232Z,482.00
2023-02-21T02:16:13.317Z,481.00
2023-02-21T02:17:16.490Z,482.00
2023-02-21T02:18:13.248Z,482.00
2023-02-21T02:19:13.265Z,481.00
2023-02-21T02:20:13.253Z,481.00
2023-02-21T02:21:13.583Z,479.00
2023-02-21T02:22:14.249Z,478.00
2023-02-21T02:23:14.267Z,478.00
2023-02-21T02:24:14.211Z,479.00
2023-02-21T02:25:14.212Z,480.00
2023-02-21T02:26:14.184Z,480.00
2023-02-21T02:27:14.217Z,481.00
2023-02-21T02:28:14.204Z,481.00
2023-02-21T02:29:14.171Z,478.00
2023-02-21T02:30:13.192Z,479.00
2023-02-21T02:31:14.600Z,482.00
2023-02-21T02:32:14.186Z,481.00
2023-02-21T02:33:13.181Z,481.00
2023-02-21T02:34:14.142Z,482.00
2023-02-21T02:35:14.138Z,484.00
2023-02-21T02:36:13.154Z,486.00
2023-02-21T02:37:13.115Z,487.00
2023-02-21T02:38:13.116Z,489.00
2023-02-21T02:39:13.125Z,488.00
2023-02-21T02:40:14.111Z,485.00
2023-02-21T02:41:13.455Z,483.00
2023-02-21T02:42:13.093Z,483.00
2023-02-21T02:43:14.078Z,481.00
2023-02-21T02:44:14.074Z,482.00
2023-02-21T02:45:14.105Z,482.00
2023-02-21T02:46:13.084Z,485.00
2023-02-21T02:47:14.066Z,486.00
2023-02-21T02:48:14.071Z,484.00
2023-02-21T02:49:14.041Z,481.00
2023-02-21T02:50:14.039Z,484.00
2023-02-21T02:51:13.350Z,483.00
2023-02-21T02:52:14.028Z,484.00
2023-02-21T02:53:14.005Z,483.00
2023-02-21T02:54:14.009Z,483.00
2023-02-21T02:55:14.026Z,485.00
2023-02-21T02:56:14.008Z,488.00
2023-02-21T02:57:13.973Z,490.00
2023-02-21T02:58:13.960Z,487.00
2023-02-21T02:59:12.954Z,488.00
2023-02-21T03:00:13.969Z,486.00
2023-02-21T03:01:14.280Z,486.00
2023-02-21T03:02:14.048Z,487.00
2023-02-21T03:03:14.157Z,484.00
2023-02-21T03:04:14.141Z,484.00
2023-02-21T03:05:13.206Z,484.00
2023-02-21T03:06:14.255Z,484.00
2023-02-21T03:07:14.311Z,485.00
2023-02-21T03:08:13.339Z,482.00
2023-02-21T03:09:14.386Z,482.00
2023-02-21T03:10:14.465Z,482.00
2023-02-21T03:11:13.852Z,479.00
2023-02-21T03:12:14.491Z,480.00
2023-02-21T03:13:14.526Z,479.00
2023-02-21T03:14:14.561Z,481.00
2023-02-21T03:15:14.568Z,484.00
2023-02-21T03:16:13.655Z,485.00
2023-02-21T03:17:13.635Z,485.00
2023-02-21T03:18:13.652Z,482.00
2023-02-21T03:19:14.732Z,479.00
2023-02-21T03:20:13.702Z,478.00
2023-02-21T03:21:15.004Z,476.00
2023-02-21T03:22:14.724Z,475.00
2023-02-21T03:23:13.759Z,474.00
2023-02-21T03:24:13.787Z,475.00
2023-02-21T03:25:14.780Z,475.00
2023-02-21T03:26:13.822Z,475.00
2023-02-21T03:27:14.825Z,474.00
2023-02-21T03:28:14.798Z,476.00
2023-02-21T03:29:14.827Z,475.00
2023-02-21T03:30:13.853Z,476.00
2023-02-21T03:31:15.197Z,477.00
2023-02-21T03:32:14.895Z,476.00
2023-02-21T03:33:14.838Z,476.00
2023-02-21T03:34:14.867Z,478.00
2023-02-21T03:35:13.854Z,477.00
2023-02-21T03:36:14.847Z,477.00
2023-02-21T03:37:14.851Z,478.00
2023-02-21T03:38:14.860Z,480.00
2023-02-21T03:39:14.854Z,477.00
2023-02-21T03:40:14.876Z,476.00
2023-02-21T03:41:14.168Z,475.00
2023-02-21T03:42:14.871Z,476.00
2023-02-21T03:43:13.882Z,478.00
2023-02-21T03:44:14.876Z,479.00
2023-02-21T03:45:14.889Z,479.00
2023-02-21T03:46:14.909Z,480.00
2023-02-21T03:47:13.855Z,479.00
2023-02-21T03:48:17.784Z,481.00
2023-02-21T03:49:14.859Z,480.00
2023-02-21T03:50:14.883Z,481.00
2023-02-21T03:51:15.352Z,479.00
2023-02-21T03:52:14.828Z,480.00
2023-02-21T03:53:14.830Z,481.00
2023-02-21T03:54:14.834Z,479.00
2023-02-21T03:55:13.815Z,479.00
2023-02-21T03:56:13.851Z,477.00
2023-02-21T03:57:14.869Z,479.00
2023-02-21T03:58:14.798Z,480.00
2023-02-21T03:59:14.848Z,481.00
2023-02-21T04:00:13.773Z,484.00
2023-02-21T04:01:15.069Z,485.00
2023-02-21T04:02:14.865Z,485.00
2023-02-21T04:03:14.758Z,484.00
2023-02-21T04:04:14.751Z,485.00
2023-02-21T04:05:14.741Z,486.00
2023-02-21T04:06:14.737Z,483.00
2023-02-21T04:07:14.746Z,485.00
2023-02-21T04:08:13.718Z,489.00
2023-02-21T04:09:14.744Z,489.00
2023-02-21T04:10:14.728Z,493.00
2023-02-21T04:11:14.122Z,493.00
2023-02-21T04:12:14.686Z,491.00
2023-02-21T04:13:13.679Z,489.00
2023-02-21T04:14:13.680Z,486.00
2023-02-21T04:15:14.694Z,484.00
2023-02-21T04:16:14.691Z,485.00
2023-02-21T04:17:13.689Z,485.00
2023-02-21T04:18:13.670Z,485.00
2023-02-21T04:19:14.699Z,488.00
2023-02-21T04:20:14.630Z,490.00
2023-02-21T04:21:13.998Z,491.00
2023-02-21T04:22:13.628Z,492.00
2023-02-21T04:23:13.611Z,490.00
2023-02-21T04:24:13.612Z,491.00
2023-02-21T04:25:14.635Z,493.00
2023-02-21T04:26:14.617Z,493.00
2023-02-21T04:27:13.596Z,492.00
2023-02-21T04:28:13.589Z,489.00
2023-02-21T04:29:13.578Z,490.00
2023-02-21T04:30:14.650Z,491.00
2023-02-21T04:31:15.192Z,492.00
2023-02-21T04:32:14.651Z,492.00
2023-02-21T04:33:14.555Z,492.00
2023-02-21T04:34:14.542Z,491.00
2023-02-21T04:35:13.541Z,489.00
2023-02-21T04:36:14.534Z,488.00
2023-02-21T04:37:13.528Z,490.00
2023-02-21T04:38:13.511Z,490.00
2023-02-21T04:39:14.496Z,490.00
2023-02-21T04:40:13.500Z,490.00
2023-02-21T04:41:14.929Z,488.00
2023-02-21T04:42:14.509Z,489.00
2023-02-21T04:43:14.474Z,490.00
2023-02-21T04:44:14.456Z,494.00
2023-02-21T04:45:14.463Z,492.00
2023-02-21T04:46:14.469Z,493.00
2023-02-21T04:47:13.468Z,494.00
2023-02-21T04:48:14.456Z,493.00
2023-02-21T04:49:14.435Z,493.00
2023-02-21T04:50:14.428Z,494.00
2023-02-21T04:51:15.476Z,496.00
2023-02-21T04:52:13.406Z,496.00
2023-02-21T04:53:14.414Z,494.00
2023-02-21T04:54:14.176Z,492.00
2023-02-21T04:55:14.389Z,494.00
2023-02-21T04:56:14.447Z,494.00
2023-02-21T04:57:13.436Z,495.00
2023-02-21T04:58:13.369Z,496.00
2023-02-21T04:59:14.384Z,493.00
2023-02-21T05:00:14.365Z,491.00
2023-02-21T05:01:14.767Z,490.00
2023-02-21T05:02:13.358Z,491.00
2023-02-21T05:03:14.354Z,490.00
2023-02-21T05:04:13.368Z,489.00
2023-02-21T05:05:14.382Z,490.00
2023-02-21T05:06:13.316Z,492.00
2023-02-21T05:07:14.298Z,493.00
2023-02-21T05:08:13.289Z,494.00
2023-02-21T05:09:14.299Z,494.00
2023-02-21T05:10:14.282Z,495.00
2023-02-21T05:11:13.598Z,496.00
2023-02-21T05:12:13.285Z,497.00
2023-02-21T05:13:14.257Z,495.00
2023-02-21T05:14:14.247Z,494.00
2023-02-21T05:15:14.251Z,495.00
2023-02-21T05:16:14.275Z,492.00
2023-02-21T05:17:13.262Z,494.00
2023-02-21T05:18:14.217Z,494.00
2023-02-21T05:19:13.254Z,495.00
2023-02-21T05:20:14.190Z,493.00
2023-02-21T05:21:14.491Z,492.00
2023-02-21T05:22:13.190Z,492.00
2023-02-21T05:23:14.240Z,487.00
2023-02-21T05:24:19.086Z,488.00
2023-02-21T05:25:14.183Z,489.00
2023-02-21T05:26:14.176Z,491.00
2023-02-21T05:27:14.167Z,490.00
2023-02-21T05:28:14.165Z,492.00
2023-02-21T05:29:14.144Z,491.00
2023-02-21T05:30:14.200Z,489.00
2023-02-21T05:31:14.569Z,492.00
2023-02-21T05:32:14.235Z,493.00
2023-02-21T05:33:14.120Z,490.00
2023-02-21T05:34:13.120Z,489.00
2023-02-21T05:35:14.128Z,491.00
2023-02-21T05:36:13.079Z,492.00
2023-02-21T05:37:14.090Z,491.00
2023-02-21T05:38:14.101Z,488.00
2023-02-21T05:39:14.105Z,489.00
2023-02-21T05:40:14.075Z,489.00
2023-02-21T05:41:14.399Z,491.00
2023-02-21T05:42:14.056Z,491.00
2023-02-21T05:43:14.059Z,492.00
2023-02-21T05:44:13.027Z,490.00
2023-02-21T05:45:14.051Z,491.00
2023-02-21T05:46:14.050Z,492.00
2023-02-21T05:47:14.031Z,491.00
2023-02-21T05:48:14.004Z,491.00
2023-02-21T05:49:14.002Z,492.00
2023-02-21T05:50:13.995Z,492.00
2023-02-21T05:51:14.351Z,492.00
2023-02-21T05:52:13.985Z,491.00
2023-02-21T05:53:14.018Z,491.00
2023-02-21T05:54:12.958Z,488.00
2023-02-21T05:55:13.953Z,486.00
2023-02-21T05:56:13.938Z,486.00
2023-02-21T05:57:13.945Z,489.00
2023-02-21T05:58:13.924Z,489.00
2023-02-21T05:59:13.947Z,490.00
2023-02-21T06:00:13.922Z,489.00
2023-02-21T06:01:14.371Z,486.00
2023-02-21T06:02:12.948Z,486.00
2023-02-21T06:03:13.006Z,490.00
2023-02-21T06:10:13.074Z,487.00
2023-02-21T06:11:14.299Z,489.00
2023-02-21T06:12:12.860Z,487.00
2023-02-21T06:15:13.885Z,491.00
2023-02-21T06:16:13.879Z,491.00
2023-02-21T06:18:12.820Z,494.00
2023-02-21T06:20:13.863Z,494.00
2023-02-21T06:21:19.722Z,494.00
2023-02-21T06:23:13.782Z,492.00
2023-02-21T06:24:13.723Z,492.00
2023-02-21T06:25:13.736Z,493.00
2023-02-21T06:28:12.707Z,520.00
2023-02-21T06:30:13.723Z,533.00
2023-02-21T06:31:14.152Z,526.00
2023-02-21T06:32:13.755Z,514.00
2023-02-21T06:36:13.675Z,603.00
2023-02-21T06:37:12.649Z,618.00
2023-02-21T06:38:12.652Z,616.00
2023-02-21T06:53:12.555Z,685.00
2023-02-21T06:57:13.516Z,726.00
2023-02-21T07:14:12.620Z,1079.00
2023-02-21T07:15:13.684Z,1085.00
2023-02-21T07:16:12.791Z,1080.00
2023-02-21T07:18:13.838Z,1087.00
2023-02-21T07:20:12.887Z,1094.00
2023-02-21T07:21:14.283Z,1092.00
2023-02-21T07:22:12.966Z,1084.00
2023-02-21T07:23:14.004Z,1081.00
2023-02-21T07:24:14.051Z,1087.00
2023-02-21T07:25:14.109Z,1099.00
2023-02-21T07:26:14.079Z,1113.00
2023-02-21T07:27:14.068Z,1136.00
2023-02-21T07:28:14.030Z,1179.00
2023-02-21T07:29:13.127Z,1199.00
2023-02-21T07:30:14.119Z,1249.00
2023-02-21T07:31:15.531Z,1301.00
2023-02-21T07:32:14.105Z,1321.00
2023-02-21T07:33:14.049Z,1349.00
2023-02-21T07:34:14.636Z,1372.00
2023-02-21T07:35:14.040Z,1402.00
2023-02-21T07:36:14.051Z,1446.00
2023-02-21T07:37:14.024Z,1475.00
2023-02-21T07:38:14.004Z,1502.00
2023-02-21T07:39:14.008Z,1524.00
2023-02-21T07:40:12.991Z,1550.00
2023-02-21T07:41:14.347Z,1609.00
2023-02-21T07:42:13.493Z,1626.00
2023-02-21T07:43:14.000Z,1644.00
2023-02-21T07:44:13.971Z,1658.00
2023-02-21T07:45:13.982Z,1689.00
2023-02-21T07:46:14.002Z,1714.00
2023-02-21T07:47:12.997Z,1780.00
2023-02-21T07:48:13.924Z,1812.00
2023-02-21T07:49:13.953Z,1833.00
2023-02-21T07:50:13.933Z,1869.00
2023-02-21T07:51:14.521Z,1903.00
2023-02-21T07:52:14.155Z,1945.00
2023-02-21T07:53:13.955Z,1955.00
2023-02-21T07:54:13.897Z,1985.00
2023-02-21T07:55:12.899Z,2006.00
2023-02-21T07:56:13.892Z,2061.00
2023-02-21T07:57:14.130Z,2105.00
2023-02-21T07:58:12.868Z,2175.00
2023-02-21T07:59:13.927Z,2211.00
2023-02-21T08:00:13.933Z,2243.00
2023-02-21T08:01:14.288Z,2253.00
2023-02-21T08:02:13.976Z,2272.00
2023-02-21T08:03:14.013Z,2291.00
2023-02-21T08:04:14.016Z,2317.00
2023-02-21T08:05:13.024Z,2332.00
2023-02-21T08:06:14.046Z,2345.00
2023-02-21T08:08:14.097Z,2357.00
2023-02-21T08:09:14.120Z,2359.00
2023-02-21T08:12:13.158Z,2410.00
2023-02-21T08:13:14.180Z,2401.00
2023-02-21T08:16:13.298Z,2404.00
2023-02-21T08:19:14.174Z,2360.00
2023-02-21T08:20:14.187Z,2366.00
2023-02-21T08:25:14.189Z,2362.00
2023-02-21T08:26:14.198Z,2356.00
2023-02-21T08:28:14.245Z,2356.00
2023-02-21T08:29:14.258Z,2360.00
2023-02-21T08:30:14.315Z,2349.00
2023-02-21T08:31:13.616Z,2348.00
2023-02-21T08:32:13.305Z,2346.00
2023-02-21T08:33:13.260Z,2341.00
2023-02-21T08:34:14.278Z,2344.00
2023-02-21T08:35:14.255Z,2348.00
2023-02-21T08:38:14.268Z,2363.00
2023-02-21T08:39:14.265Z,2363.00
2023-02-21T08:40:14.305Z,2371.00
2023-02-21T08:41:14.692Z,2370.00
2023-02-21T08:42:14.422Z,2369.00
2023-02-21T08:43:14.432Z,2351.00
2023-02-21T08:44:13.548Z,2341.00
2023-02-21T08:45:13.540Z,2342.00
2023-02-21T08:46:13.609Z,2345.00
2023-02-21T08:49:14.718Z,2234.00
2023-02-21T08:50:14.727Z,2253.00
2023-02-21T08:51:15.070Z,2261.00
2023-02-21T08:53:15.397Z,2349.00
2023-02-21T08:54:13.946Z,2432.00
2023-02-21T08:55:14.022Z,2449.00
2023-02-21T08:56:15.079Z,2457.00
2023-02-21T08:57:15.190Z,2469.00
2023-02-21T08:58:14.201Z,2478.00
2023-02-21T08:59:15.273Z,2615.00
2023-02-21T09:01:15.831Z,2609.00
2023-02-21T09:02:15.474Z,2612.00
2023-02-21T09:04:14.547Z,2676.00
2023-02-21T09:07:15.619Z,2691.00
2023-02-21T09:12:14.802Z,2750.00
2023-02-21T09:15:15.911Z,2846.00
2023-02-21T09:18:15.011Z,2870.00
2023-02-21T09:20:16.104Z,2893.00
2023-02-21T09:21:15.479Z,2908.00
2023-02-21T09:22:15.180Z,2920.00
2023-02-21T09:23:15.228Z,2933.00
2023-02-21T11:08:19.978Z,1031.00
2023-02-21T11:09:20.123Z,1031.00
2023-02-21T11:10:20.099Z,1016.00
2023-02-21T11:13:20.273Z,944.00
2023-02-21T11:14:20.314Z,941.00
2023-02-21T11:16:20.407Z,923.00
2023-02-21T11:17:20.503Z,887.00
2023-02-21T11:18:20.521Z,877.00
2023-02-21T11:19:20.567Z,873.00
2023-02-21T11:20:20.692Z,867.00
2023-02-21T11:21:20.665Z,864.00
2023-02-21T11:23:20.758Z,847.00
2023-02-21T11:24:20.815Z,845.00
2023-02-21T11:25:20.866Z,838.00
2023-02-21T11:26:19.950Z,837.00
2023-02-21T11:27:20.993Z,834.00
2023-02-21T11:28:20.087Z,834.00
2023-02-21T11:29:21.108Z,833.00
2023-02-21T11:30:21.275Z,825.00
2023-02-21T11:31:20.296Z,812.00
2023-02-21T11:32:21.374Z,811.00
2023-02-21T11:33:21.387Z,806.00
2023-02-21T11:34:21.434Z,802.00
2023-02-21T11:35:20.515Z,790.00
2023-02-21T11:36:21.566Z,783.00
2023-02-21T11:37:21.643Z,769.00
2023-02-21T11:38:21.684Z,759.00
2023-02-21T11:39:21.758Z,752.00
2023-02-21T11:40:21.821Z,751.00
2023-02-21T11:41:21.877Z,747.00
2023-02-21T11:42:21.954Z,752.00
2023-02-21T11:43:21.203Z,752.00
2023-02-21T11:44:21.971Z,748.00
2023-02-21T11:45:21.996Z,777.00
2023-02-21T11:46:21.030Z,791.00
2023-02-21T11:47:21.974Z,732.00
2023-02-21T11:48:21.216Z,744.00
2023-02-21T11:49:21.982Z,753.00
2023-02-21T11:50:20.970Z,745.00
2023-02-21T11:51:21.966Z,746.00
2023-02-21T11:52:21.993Z,742.00
2023-02-21T11:53:22.007Z,730.00
2023-02-21T11:54:21.972Z,727.00
2023-02-21T11:55:22.029Z,733.00
2023-02-21T11:56:22.008Z,746.00
2023-02-21T11:57:21.042Z,775.00
2023-02-21T11:58:21.072Z,783.00
2023-02-21T11:59:22.091Z,780.00
2023-02-21T12:00:22.153Z,782.00
2023-02-21T12:01:21.201Z,781.00
2023-02-21T12:02:22.286Z,784.00
2023-02-21T12:03:22.335Z,787.00
2023-02-21T12:04:21.337Z,780.00
2023-02-21T12:05:22.377Z,762.00
2023-02-21T12:06:22.443Z,758.00
2023-02-21T12:07:22.485Z,733.00
2023-02-21T12:08:21.482Z,718.00
2023-02-21T12:09:22.501Z,714.00
2023-02-21T12:10:22.512Z,701.00
2023-02-21T12:11:22.514Z,691.00
2023-02-21T12:12:22.514Z,683.00
2023-02-21T12:13:21.498Z,680.00
2023-02-21T12:14:22.555Z,680.00
2023-02-21T12:15:22.560Z,674.00
2023-02-21T12:16:22.557Z,699.00
2023-02-21T12:17:21.574Z,696.00
2023-02-21T12:18:21.633Z,696.00
2023-02-21T12:19:22.656Z,695.00
2023-02-21T12:20:22.665Z,713.00
2023-02-21T12:21:21.672Z,718.00
2023-02-21T12:22:22.688Z,728.00
2023-02-21T12:23:21.728Z,744.00
2023-02-21T12:24:22.701Z,757.00
2023-02-21T12:25:22.706Z,764.00
2023-02-21T12:26:22.711Z,766.00
2023-02-21T12:27:22.717Z,765.00
2023-02-21T12:28:22.739Z,764.00
2023-02-21T12:29:22.734Z,772.00
2023-02-21T12:30:21.827Z,777.00
2023-02-21T12:31:21.930Z,779.00
2023-02-21T12:32:21.961Z,780.00
2023-02-21T12:33:21.944Z,790.00
2023-02-21T12:34:23.011Z,803.00
2023-02-21T12:35:23.108Z,808.00
2023-02-21T12:36:23.131Z,813.00
2023-02-21T12:37:23.196Z,816.00
2023-02-21T12:38:22.261Z,817.00
2023-02-21T12:39:23.731Z,820.00
2023-02-21T12:40:23.382Z,824.00
2023-02-21T12:41:23.443Z,822.00
2023-02-21T12:42:23.487Z,824.00
2023-02-21T12:43:23.554Z,822.00
2023-02-21T12:44:23.638Z,824.00
2023-02-21T12:45:22.682Z,827.00
2023-02-21T12:46:22.849Z,826.00
2023-02-21T12:47:23.802Z,823.00
2023-02-21T12:48:23.867Z,824.00
2023-02-21T12:49:23.934Z,831.00
2023-02-21T12:50:22.983Z,836.00
2023-02-21T12:51:24.052Z,847.00
2023-02-21T12:52:24.108Z,850.00
2023-02-21T12:53:24.163Z,850.00
2023-02-21T12:54:24.242Z,851.00
2023-02-21T12:55:24.298Z,852.00
2023-02-21T12:56:24.335Z,852.00
2023-02-21T12:57:24.383Z,854.00
2023-02-21T12:58:23.454Z,849.00
2023-02-21T12:59:24.728Z,849.00
2023-02-21T13:00:24.563Z,849.00
2023-02-21T13:01:24.666Z,849.00
2023-02-21T13:02:23.696Z,851.00
2023-02-21T13:03:24.713Z,851.00
2023-02-21T13:04:24.788Z,853.00
2023-02-21T13:05:24.840Z,858.00
2023-02-21T13:06:23.911Z,862.00
2023-02-21T13:07:24.955Z,868.00
2023-02-21T13:08:24.995Z,863.00
2023-02-21T13:09:25.054Z,865.00
2023-02-21T13:10:25.104Z,866.00
2023-02-21T13:11:24.146Z,871.00
2023-02-21T13:12:25.183Z,873.00
2023-02-21T13:13:24.190Z,877.00
2023-02-21T13:14:24.236Z,879.00
2023-02-21T13:15:25.249Z,881.00
2023-02-21T13:16:24.376Z,882.00
2023-02-21T13:17:25.388Z,883.00
2023-02-21T13:18:24.457Z,881.00
2023-02-21T13:19:24.508Z,879.00
2023-02-21T13:20:24.547Z,876.00
2023-02-21T13:21:25.652Z,877.00
2023-02-21T13:22:25.657Z,880.00
2023-02-21T13:23:25.729Z,882.00
2023-02-21T13:24:25.795Z,882.00
2023-02-21T13:25:25.832Z,896.00
2023-02-21T13:26:25.885Z,934.00
2023-02-21T13:27:25.956Z,944.00
2023-02-21T13:28:26.024Z,948.00
2023-02-21T13:29:26.060Z,948.00
2023-02-21T13:30:26.249Z,939.00
2023-02-21T13:31:26.267Z,937.00
2023-02-21T13:32:25.338Z,937.00
2023-02-21T13:33:26.282Z,941.00
2023-02-21T13:34:26.370Z,939.00
2023-02-21T13:35:26.396Z,939.00
2023-02-21T13:36:25.508Z,952.00
2023-02-21T13:37:26.548Z,960.00
2023-02-21T13:38:25.587Z,963.00
2023-02-21T13:39:26.619Z,959.00
2023-02-21T13:40:26.701Z,962.00
2023-02-21T13:41:26.770Z,970.00
2023-02-21T13:42:26.725Z,971.00
2023-02-21T13:43:26.742Z,969.00
2023-02-21T13:44:25.743Z,970.00
2023-02-21T13:45:25.766Z,973.00
2023-02-21T13:46:25.832Z,975.00
2023-02-21T13:47:25.742Z,976.00
2023-02-21T13:48:26.781Z,982.00
2023-02-21T13:49:26.775Z,985.00
2023-02-21T13:50:25.783Z,985.00
2023-02-21T13:51:25.776Z,980.00
2023-02-21T13:52:26.766Z,977.00
2023-02-21T13:53:25.775Z,978.00
2023-02-21T13:54:26.784Z,976.00
2023-02-21T13:55:25.765Z,971.00
2023-02-21T13:56:26.804Z,968.00
2023-02-21T13:57:26.788Z,969.00
2023-02-21T13:58:26.800Z,966.00
2023-02-21T13:59:26.798Z,964.00
2023-02-21T14:00:25.843Z,962.00
2023-02-21T14:01:27.811Z,962.00
2023-02-21T14:02:26.787Z,961.00
2023-02-21T14:03:26.768Z,960.00
2023-02-21T14:04:26.816Z,960.00
2023-02-21T14:05:26.761Z,956.00
2023-02-21T14:06:25.770Z,957.00
2023-02-21T14:07:26.751Z,960.00
2023-02-21T14:08:26.818Z,970.00
2023-02-21T14:09:26.757Z,974.00
2023-02-21T14:12:25.696Z,978.00
2023-02-21T14:13:25.703Z,986.00
2023-02-21T14:14:26.719Z,984.00
2023-02-21T14:15:26.683Z,982.00
2023-02-21T14:24:25.651Z,992.00
2023-02-21T14:25:26.620Z,994.00
2023-02-21T14:26:25.601Z,998.00
2023-02-21T14:27:25.604Z,1000.00
2023-02-21T14:28:25.586Z,995.00
2023-02-21T14:29:25.636Z,996.00
2023-02-21T14:30:25.689Z,997.00
2023-02-21T14:31:25.583Z,997.00
2023-02-21T14:32:26.603Z,999.00
2023-02-21T14:33:25.555Z,1003.00
2023-02-21T14:34:25.561Z,1011.00
2023-02-21T14:35:26.547Z,1015.00
2023-02-21T14:36:26.557Z,1018.00
2023-02-21T14:37:26.524Z,1016.00
2023-02-21T14:38:26.776Z,1011.00
2023-02-21T14:39:26.515Z,1009.00
2023-02-21T15:00:25.348Z,994.00
2023-02-21T15:01:25.486Z,994.00
2023-02-21T15:07:25.301Z,996.00
2023-02-21T15:08:26.284Z,997.00
2023-02-21T15:09:26.265Z,997.00
2023-02-21T15:10:26.306Z,994.00
2023-02-21T15:11:26.581Z,993.00
2023-02-21T15:12:26.245Z,991.00
2023-02-21T15:13:26.236Z,994.00
2023-02-21T15:14:26.254Z,996.00
2023-02-21T15:15:26.234Z,999.00
2023-02-21T15:16:26.283Z,1001.00
2023-02-21T15:17:25.228Z,1002.00
2023-02-21T15:18:26.219Z,1001.00
2023-02-21T15:19:25.206Z,1003.00
2023-02-21T15:20:25.213Z,1003.00
2023-02-21T15:21:26.188Z,1002.00
2023-02-21T15:22:25.741Z,998.00
2023-02-21T15:23:26.174Z,998.00
2023-02-21T15:24:26.162Z,999.00
2023-02-21T15:25:26.167Z,993.00
2023-02-21T15:26:26.179Z,995.00
2023-02-21T15:27:25.192Z,992.00
2023-02-21T15:28:25.137Z,992.00
2023-02-21T15:29:25.152Z,992.00
2023-02-21T15:30:26.221Z,992.00
2023-02-21T15:31:26.198Z,990.00
2023-02-21T15:32:25.204Z,993.00
2023-02-21T15:33:26.249Z,997.00
2023-02-21T15:34:25.246Z,997.00
2023-02-21T15:35:25.292Z,996.00
2023-02-21T15:36:26.299Z,997.00
2023-02-21T15:37:26.334Z,999.00
2023-02-21T15:38:26.377Z,994.00
2023-02-21T15:39:26.454Z,991.00
2023-02-21T15:40:25.429Z,992.00
2023-02-21T15:41:25.444Z,993.00
2023-02-21T15:42:25.507Z,994.00
2023-02-21T15:43:26.520Z,992.00
2023-02-21T15:44:26.531Z,991.00
2023-02-21T15:45:26.625Z,995.00
2023-02-21T15:46:25.736Z,993.00
2023-02-21T15:47:26.628Z,993.00
2023-02-21T15:48:26.650Z,989.00
2023-02-21T15:49:26.668Z,988.00
2023-02-21T15:50:25.705Z,987.00
2023-02-21T15:51:25.731Z,986.00
2023-02-21T15:52:25.745Z,987.00
2023-02-21T15:53:25.776Z,991.00
2023-02-21T15:54:26.829Z,992.00
2023-02-21T15:55:26.860Z,987.00
2023-02-21T15:56:26.895Z,986.00
2023-02-21T15:57:26.913Z,986.00
2023-02-21T15:58:25.975Z,987.00
2023-02-21T15:59:26.987Z,988.00
2023-02-21T16:00:27.051Z,988.00
2023-02-21T16:02:26.122Z,983.00
2023-02-21T16:03:26.101Z,982.00
2023-02-21T16:04:27.128Z,981.00
2023-02-21T16:05:26.187Z,981.00
2023-02-21T16:06:26.201Z,981.00
2023-02-21T16:07:26.229Z,983.00
2023-02-21T16:08:26.262Z,985.00
2023-02-21T16:09:26.305Z,986.00
2023-02-21T16:10:26.399Z,982.00